createdAt,value
2019-05-05T00:07:51.822Z,94.10
2019-05-05T00:16:54.658Z,94.10
2019-05-05T00:19:35.979Z,94.00
2019-05-05T00:22:04.545Z,94.10
2019-05-05T00:24:54.484Z,94.00
2019-05-05T00:27:34.708Z,93.90
2019-05-05T00:30:14.479Z,94.00
2019-05-05T00:32:54.847Z,93.80
2019-05-05T00:35:34.625Z,93.90
2019-05-05T00:38:15.026Z,93.90
2019-05-05T00:40:55.255Z,94.00
2019-05-05T00:43:35.414Z,94.20
2019-05-05T00:52:24.520Z,93.90
2019-05-05T00:55:04.638Z,94.30
2019-05-05T00:57:45.335Z,94.20
2019-05-05T01:00:44.683Z,94.30
2019-05-05T01:03:26.391Z,94.40
2019-05-05T01:06:26.035Z,94.60
2019-05-05T01:09:07.873Z,94.70
2019-05-05T01:11:48.158Z,94.60
2019-05-05T01:14:28.411Z,94.40
2019-05-05T01:17:08.600Z,94.30
2019-05-05T01:20:00.222Z,94.00
2019-05-05T01:22:30.803Z,93.80
2019-05-05T01:25:10.959Z,93.40
2019-05-05T01:27:50.994Z,93.00
2019-05-05T01:30:34.975Z,92.70
2019-05-05T01:36:14.901Z,92.70
2019-05-05T01:39:04.146Z,93.00
2019-05-05T01:41:47.390Z,93.10
2019-05-05T01:44:27.429Z,93.50
2019-05-05T01:47:07.405Z,93.50
2019-05-05T01:49:47.616Z,93.70
2019-05-05T01:52:27.815Z,93.50
2019-05-05T01:55:07.883Z,93.50
2019-05-05T01:57:35.525Z,93.70
2019-05-05T02:00:22.547Z,93.80
2019-05-05T02:03:04.310Z,93.40
2019-05-05T02:05:31.691Z,93.10
2019-05-05T02:07:59.285Z,93.20
2019-05-05T02:10:27.005Z,93.30
2019-05-05T02:12:55.157Z,93.20
2019-05-05T02:15:24.906Z,93.30
2019-05-05T02:17:52.217Z,93.30
2019-05-05T02:21:00.218Z,93.40
2019-05-05T02:23:28.202Z,93.60
2019-05-05T02:25:55.888Z,93.70
2019-05-05T02:28:25.412Z,93.70
2019-05-05T02:31:18.195Z,93.60
2019-05-05T02:33:46.093Z,93.70
2019-05-05T02:36:15.983Z,93.60
2019-05-05T02:38:46.317Z,93.30
2019-05-05T02:41:15.509Z,93.40
2019-05-05T02:43:44.942Z,93.60
2019-05-05T02:46:25.365Z,93.10
2019-05-05T02:48:55.283Z,93.00
2019-05-05T02:51:25.656Z,92.90
2019-05-05T02:53:55.857Z,92.80
2019-05-05T02:56:29.537Z,92.70
2019-05-05T02:59:00.923Z,92.50
2019-05-05T03:01:37.043Z,92.60
2019-05-05T03:04:06.089Z,92.60
2019-05-05T03:06:34.992Z,92.70
2019-05-05T03:09:06.215Z,92.60
2019-05-05T03:11:34.677Z,92.20
2019-05-05T03:14:05.431Z,92.00
2019-05-05T03:16:38.051Z,92.00
2019-05-05T03:19:07.512Z,92.20
2019-05-05T03:21:35.694Z,92.00
2019-05-05T03:24:03.919Z,92.00
2019-05-05T03:26:33.901Z,92.10
2019-05-05T03:29:04.751Z,92.20
2019-05-05T03:31:35.241Z,92.10
2019-05-05T03:34:05.976Z,92.20
2019-05-05T03:36:33.965Z,92.40
2019-05-05T03:39:05.166Z,92.40
2019-05-05T03:41:58.576Z,92.50
2019-05-05T03:44:29.904Z,92.50
2019-05-05T03:46:57.635Z,92.50
2019-05-05T03:49:25.371Z,92.70
2019-05-05T03:51:54.341Z,93.10
2019-05-05T03:54:23.850Z,93.20
2019-05-05T03:57:07.104Z,93.30
2019-05-05T03:59:35.615Z,93.20
2019-05-05T04:02:15.974Z,93.60
2019-05-05T04:04:48.690Z,93.40
2019-05-05T04:07:17.168Z,93.50
2019-05-05T04:09:45.644Z,93.60
2019-05-05T04:12:13.802Z,93.70
2019-05-05T04:14:44.056Z,93.80
2019-05-05T04:17:29.855Z,93.80
2019-05-05T04:19:58.305Z,94.00
2019-05-05T04:22:26.018Z,94.10
2019-05-05T04:24:54.231Z,94.10
2019-05-05T04:27:23.812Z,94.10
2019-05-05T04:29:51.535Z,94.20
2019-05-05T04:32:19.181Z,94.30
2019-05-05T04:34:46.902Z,94.10
2019-05-05T04:37:15.253Z,94.10
2019-05-05T04:39:44.395Z,94.20
2019-05-05T04:42:14.018Z,94.20
2019-05-05T04:44:41.910Z,94.20
2019-05-05T04:47:18.658Z,94.50
2019-05-05T04:49:55.811Z,94.20
2019-05-05T04:52:24.252Z,94.20
2019-05-05T04:54:52.824Z,93.90
2019-05-05T04:57:21.247Z,93.90
2019-05-05T04:59:50.837Z,93.90
2019-05-05T05:02:50.087Z,94.00
2019-05-05T05:05:35.549Z,94.00
2019-05-05T05:08:03.745Z,94.10
2019-05-05T05:10:31.514Z,94.00
2019-05-05T05:12:59.239Z,93.90
2019-05-05T05:15:26.904Z,94.10
2019-05-05T05:18:04.654Z,94.30
2019-05-05T05:20:34.000Z,94.50
2019-05-05T05:23:03.578Z,94.50
2019-05-05T05:25:31.139Z,94.50
2019-05-05T05:27:58.798Z,94.50
2019-05-05T05:30:26.516Z,94.60
2019-05-05T05:32:54.236Z,94.40
2019-05-05T05:35:21.857Z,94.60
2019-05-05T05:37:49.503Z,94.60
2019-05-05T05:40:23.619Z,94.50
2019-05-05T05:42:51.290Z,94.60
2019-05-05T05:45:34.408Z,94.70
2019-05-05T05:48:24.460Z,95.10
2019-05-05T05:51:11.581Z,95.50
2019-05-05T05:53:39.331Z,94.90
2019-05-05T05:56:07.070Z,94.80
2019-05-05T05:58:34.775Z,94.90
2019-05-05T06:01:04.352Z,94.80
2019-05-05T06:03:33.751Z,94.60
2019-05-05T06:06:01.416Z,94.40
2019-05-05T06:08:30.031Z,94.40
2019-05-05T06:10:57.910Z,94.40
2019-05-05T06:13:25.540Z,94.10
2019-05-05T06:15:53.566Z,94.20
2019-05-05T06:18:21.312Z,94.40
2019-05-05T06:20:49.035Z,94.40
2019-05-05T06:23:16.742Z,94.70
2019-05-05T06:25:44.820Z,95.00
2019-05-05T06:28:14.523Z,94.80
2019-05-05T06:30:44.107Z,95.10
2019-05-05T06:33:13.681Z,95.00
2019-05-05T06:35:41.312Z,95.10
2019-05-05T06:38:09.030Z,94.50
2019-05-05T06:40:56.200Z,94.80
2019-05-05T06:43:49.142Z,94.60
2019-05-05T06:46:20.191Z,94.60
2019-05-05T06:48:47.883Z,94.90
2019-05-05T06:51:15.544Z,94.40
2019-05-05T06:53:43.564Z,94.40
2019-05-05T06:56:11.521Z,93.80
2019-05-05T06:58:39.275Z,93.90
2019-05-05T07:01:07.037Z,94.20
2019-05-05T07:03:34.828Z,94.20
2019-05-05T07:06:04.308Z,93.90
2019-05-05T07:08:32.099Z,93.80
2019-05-05T07:10:59.791Z,94.20
2019-05-05T07:13:27.481Z,94.00
2019-05-05T07:15:55.142Z,93.70
2019-05-05T07:18:24.608Z,93.90
2019-05-05T07:20:54.340Z,93.90
2019-05-05T07:23:21.666Z,93.70
2019-05-05T07:25:49.283Z,93.60
2019-05-05T07:28:16.917Z,93.00
2019-05-05T07:30:44.614Z,92.80
2019-05-05T07:33:14.716Z,92.60
2019-05-05T07:35:56.669Z,92.50
2019-05-05T07:38:19.182Z,92.00
2019-05-05T07:40:46.889Z,91.90
2019-05-05T07:43:14.755Z,92.00
2019-05-05T07:45:44.448Z,92.10
2019-05-05T07:48:13.872Z,91.50
2019-05-05T07:50:43.626Z,91.90
2019-05-05T07:53:14.876Z,92.10
2019-05-05T07:55:40.697Z,91.90
2019-05-05T07:58:08.437Z,91.70
2019-05-05T08:00:36.250Z,91.50
2019-05-05T08:03:04.210Z,91.40
2019-05-05T08:05:33.561Z,91.20
2019-05-05T08:08:01.295Z,90.80
2019-05-05T08:10:28.961Z,90.30
2019-05-05T08:12:57.436Z,90.00
2019-05-05T08:15:26.433Z,90.10
2019-05-05T08:18:13.956Z,90.30
2019-05-05T08:20:44.484Z,90.50
2019-05-05T08:23:30.154Z,90.50
2019-05-05T08:26:06.145Z,90.30
2019-05-05T08:28:47.641Z,90.30
2019-05-05T08:31:29.976Z,90.60
2019-05-05T08:34:16.998Z,90.50
2019-05-05T08:37:04.579Z,90.40
2019-05-05T08:39:45.143Z,89.80
2019-05-05T08:42:44.525Z,90.10
2019-05-05T08:45:26.782Z,88.60
2019-05-05T08:48:06.825Z,86.70
2019-05-05T08:50:46.807Z,85.50
2019-05-05T08:53:41.162Z,85.80
2019-05-05T08:56:09.044Z,84.90
2019-05-05T08:58:49.923Z,81.10
2019-05-05T09:01:30.084Z,81.50
2019-05-05T09:04:10.174Z,80.80
2019-05-05T09:06:37.926Z,80.30
2019-05-05T09:09:24.984Z,78.70
2019-05-05T09:12:05.453Z,79.00
2019-05-05T09:17:44.152Z,76.50
2019-05-05T09:20:24.299Z,77.10
2019-05-05T09:23:04.390Z,77.90
2019-05-05T09:26:04.408Z,77.90
2019-05-05T09:29:07.142Z,75.60
2019-05-05T09:31:45.662Z,74.40
2019-05-05T09:34:14.636Z,77.20
2019-05-05T09:36:55.219Z,73.80
2019-05-05T09:39:35.246Z,72.00
2019-05-05T09:42:15.292Z,73.80
2019-05-05T09:44:55.503Z,71.20
2019-05-05T09:47:35.641Z,72.00
2019-05-05T09:50:15.899Z,68.40
2019-05-05T09:52:55.732Z,67.40
2019-05-05T09:55:35.810Z,65.90
2019-05-05T09:58:15.867Z,66.30
2019-05-05T10:00:55.922Z,65.50
2019-05-05T10:03:36.251Z,65.40
2019-05-05T10:06:16.335Z,65.50
2019-05-05T10:08:56.558Z,60.90
2019-05-05T10:11:36.642Z,60.50
2019-05-05T10:14:16.755Z,60.20
2019-05-05T10:16:56.761Z,59.40
2019-05-05T10:19:36.876Z,59.60
2019-05-05T10:22:16.978Z,60.50
2019-05-05T10:25:23.798Z,60.50
2019-05-05T10:28:04.224Z,60.40
2019-05-05T10:30:53.861Z,60.20
2019-05-05T10:33:37.650Z,62.10
2019-05-05T10:36:17.967Z,61.60
2019-05-05T10:39:04.410Z,61.40
2019-05-05T10:41:44.208Z,60.30
2019-05-05T10:44:24.022Z,60.90
2019-05-05T10:50:05.182Z,61.10
2019-05-05T10:52:33.812Z,60.20
2019-05-05T10:55:23.909Z,58.70
2019-05-05T10:57:54.253Z,59.40
2019-05-05T11:03:34.341Z,58.80
2019-05-05T11:06:14.510Z,59.20
2019-05-05T11:08:54.717Z,58.60
2019-05-05T11:11:34.760Z,59.40
2019-05-05T11:14:03.823Z,60.50
2019-05-05T11:16:50.853Z,59.70
2019-05-05T11:19:33.484Z,59.80
2019-05-05T11:22:14.655Z,58.20
2019-05-05T11:25:00.545Z,56.70
2019-05-05T11:27:36.882Z,55.70
2019-05-05T11:30:26.733Z,55.90
2019-05-05T11:33:24.470Z,55.00
2019-05-05T11:36:24.101Z,54.60
2019-05-05T11:39:05.718Z,55.30
2019-05-05T11:41:46.081Z,56.50
2019-05-05T11:44:15.191Z,57.30
2019-05-05T11:47:03.661Z,57.70
2019-05-05T11:49:44.546Z,58.90
2019-05-05T11:52:12.256Z,59.70
2019-05-05T11:55:09.760Z,59.60
2019-05-05T11:57:40.993Z,61.20
2019-05-05T12:00:21.010Z,60.20
2019-05-05T12:03:01.071Z,60.70
2019-05-05T12:05:41.407Z,59.60
2019-05-05T12:08:23.721Z,62.20
2019-05-05T12:11:08.426Z,62.30
2019-05-05T12:13:48.875Z,63.80
2019-05-05T12:16:29.981Z,64.50
2019-05-05T12:19:13.561Z,64.50
2019-05-05T12:21:54.859Z,62.60
2019-05-05T12:24:39.323Z,65.00
2019-05-05T12:30:27.755Z,65.00
2019-05-05T12:33:08.365Z,65.20
2019-05-05T12:35:48.332Z,63.80
2019-05-05T12:38:28.345Z,66.70
2019-05-05T12:41:08.543Z,66.60
2019-05-05T12:43:48.662Z,70.90
2019-05-05T12:46:47.825Z,65.70
2019-05-05T12:49:27.781Z,67.50
2019-05-05T12:52:08.089Z,61.10
2019-05-05T12:54:48.271Z,60.50
2019-05-05T12:57:28.808Z,58.30
2019-05-05T13:00:08.607Z,58.10
2019-05-05T13:06:01.057Z,58.20
2019-05-05T13:08:40.993Z,58.70
2019-05-05T13:11:23.653Z,59.10
2019-05-05T13:14:04.030Z,60.30
2019-05-05T13:16:52.434Z,61.10
2019-05-05T13:28:34.410Z,64.20
2019-05-05T13:31:14.822Z,66.20
2019-05-05T13:33:54.999Z,68.20
2019-05-05T13:36:35.190Z,68.70
2019-05-05T13:39:15.720Z,69.10
2019-05-05T13:41:56.043Z,69.80
2019-05-05T13:44:55.943Z,69.30
2019-05-05T13:47:35.858Z,69.20
2019-05-05T13:53:14.272Z,68.70
2019-05-05T13:56:08.174Z,70.30
2019-05-05T13:58:36.804Z,72.80
2019-05-05T14:01:16.947Z,73.70
2019-05-05T14:03:57.811Z,74.90
2019-05-05T14:06:38.116Z,76.90
2019-05-05T14:09:18.298Z,77.70
2019-05-05T14:11:58.168Z,78.50
2019-05-05T14:14:38.410Z,77.50
2019-05-05T14:17:18.713Z,76.70
2019-05-05T14:20:00.203Z,76.20
2019-05-05T14:22:35.426Z,76.60
2019-05-05T14:25:19.321Z,77.30
2019-05-05T14:27:59.629Z,77.20
2019-05-05T14:30:59.095Z,76.80
2019-05-05T14:33:59.168Z,75.60
2019-05-05T14:36:44.619Z,78.30
2019-05-05T14:39:25.193Z,76.20
2019-05-05T14:42:05.358Z,76.30
2019-05-05T14:44:45.510Z,74.40
2019-05-05T14:47:13.673Z,72.90
2019-05-05T14:50:04.542Z,73.40
2019-05-05T14:52:44.139Z,72.60
2019-05-05T14:55:14.086Z,72.60
2019-05-05T14:58:01.303Z,73.70
2019-05-05T15:00:41.355Z,74.10
2019-05-05T15:03:21.357Z,72.90
2019-05-05T15:06:06.389Z,73.90
2019-05-05T15:09:06.159Z,73.80
2019-05-05T15:12:05.558Z,74.80
2019-05-05T15:14:46.146Z,76.20
2019-05-05T15:17:26.126Z,76.90
2019-05-05T15:20:06.243Z,77.60
2019-05-05T15:22:46.311Z,75.40
2019-05-05T15:25:26.287Z,77.30
2019-05-05T15:28:06.560Z,77.60
2019-05-05T15:30:46.703Z,71.60
2019-05-05T15:33:26.778Z,73.70
2019-05-05T15:36:06.798Z,73.70
2019-05-05T15:38:48.818Z,72.70
2019-05-05T15:41:28.931Z,73.90
2019-05-05T15:44:09.045Z,73.30
2019-05-05T15:46:49.002Z,74.10
2019-05-05T15:49:29.275Z,73.70
2019-05-05T15:52:09.447Z,72.60
2019-05-05T15:54:49.362Z,73.50
2019-05-05T15:57:29.597Z,73.80
2019-05-05T16:00:09.614Z,76.70
2019-05-05T16:02:49.704Z,78.20
2019-05-05T16:05:29.941Z,80.80
2019-05-05T16:08:10.307Z,81.30
2019-05-05T16:10:50.209Z,83.90
2019-05-05T16:13:30.208Z,85.50
2019-05-05T16:16:35.700Z,86.60
2019-05-05T16:19:41.417Z,88.10
2019-05-05T16:22:28.890Z,88.70
2019-05-05T16:25:14.682Z,88.00
2019-05-05T16:27:54.966Z,88.60
2019-05-05T16:30:34.586Z,88.10
2019-05-05T16:33:04.112Z,88.70
2019-05-05T16:35:51.159Z,88.70
2019-05-05T16:38:30.909Z,89.80
2019-05-05T16:41:11.251Z,87.10
2019-05-05T16:43:53.463Z,85.60
2019-05-05T16:46:34.265Z,85.80
2019-05-05T16:49:03.538Z,86.00
2019-05-05T16:57:58.546Z,86.40
2019-05-05T17:00:38.453Z,86.70
2019-05-05T17:03:18.663Z,87.20
2019-05-05T17:06:00.645Z,88.60
2019-05-05T17:08:40.815Z,87.20
2019-05-05T17:11:21.040Z,87.70
2019-05-05T17:14:20.296Z,88.10
2019-05-05T17:17:19.353Z,88.00
2019-05-05T17:20:04.561Z,88.10
2019-05-05T17:22:49.029Z,88.60
2019-05-05T17:25:29.189Z,88.40
2019-05-05T17:28:09.248Z,88.40
2019-05-05T17:30:49.185Z,89.20
2019-05-05T17:33:29.346Z,89.60
2019-05-05T17:36:09.519Z,90.10
2019-05-05T17:38:49.657Z,89.90
2019-05-05T17:41:49.400Z,90.00
2019-05-05T17:44:48.761Z,90.00
2019-05-05T17:47:35.759Z,90.00
2019-05-05T17:50:21.462Z,90.00
2019-05-05T17:53:09.806Z,90.20
2019-05-05T17:55:50.393Z,90.70
2019-05-05T17:58:30.233Z,90.70
2019-05-05T18:01:10.277Z,91.00
2019-05-05T18:03:50.165Z,91.30
2019-05-05T18:06:49.731Z,91.20
2019-05-05T18:09:53.798Z,91.20
2019-05-05T18:12:54.055Z,91.50
2019-05-05T18:15:54.399Z,91.70
2019-05-05T18:18:35.059Z,91.40
2019-05-05T18:21:14.970Z,91.50
2019-05-05T18:23:54.963Z,90.20
2019-05-05T18:26:35.178Z,88.30
2019-05-05T18:29:15.670Z,88.50
2019-05-05T18:31:55.801Z,89.40
2019-05-05T18:34:36.140Z,89.50
2019-05-05T18:37:15.947Z,90.30
2019-05-05T18:39:56.042Z,90.50
2019-05-05T18:42:36.311Z,90.80
2019-05-05T18:45:16.838Z,91.50
2019-05-05T18:47:56.479Z,92.00
2019-05-05T18:50:36.760Z,92.40
2019-05-05T18:53:16.825Z,92.90
2019-05-05T18:55:57.191Z,92.80
2019-05-05T18:58:37.458Z,92.80
2019-05-05T19:01:36.750Z,92.70
2019-05-05T19:07:23.830Z,93.30
2019-05-05T19:10:06.046Z,93.40
2019-05-05T19:12:46.245Z,93.70
2019-05-05T19:15:14.340Z,94.10
2019-05-05T19:18:01.419Z,94.30
2019-05-05T19:23:24.103Z,94.00
2019-05-05T19:26:11.242Z,94.20
2019-05-05T19:28:50.850Z,94.00
2019-05-05T19:31:34.598Z,94.30
2019-05-05T19:34:14.552Z,93.90
2019-05-05T19:36:54.768Z,93.80
2019-05-05T19:39:34.815Z,93.70
2019-05-05T19:42:15.143Z,93.30
2019-05-05T19:44:55.141Z,92.70
2019-05-05T19:47:35.517Z,92.70
2019-05-05T19:50:35.085Z,93.00
2019-05-05T19:53:35.582Z,93.00
2019-05-05T19:56:17.149Z,93.40
2019-05-05T19:58:57.930Z,93.20
2019-05-05T20:01:37.535Z,93.20
2019-05-05T20:04:15.481Z,93.20
2019-05-05T20:06:55.482Z,93.40
2019-05-05T20:09:35.962Z,93.50
2019-05-05T20:12:15.970Z,93.60
2019-05-05T20:14:56.514Z,93.40
2019-05-05T20:17:37.165Z,93.20
2019-05-05T20:20:06.440Z,93.30
2019-05-05T20:22:54.788Z,93.30
2019-05-05T20:25:35.386Z,93.50
2019-05-05T20:28:15.914Z,93.60
2019-05-05T20:30:43.585Z,93.60
2019-05-05T20:33:50.077Z,93.60
2019-05-05T20:36:56.566Z,93.50
2019-05-05T20:39:37.068Z,93.70
2019-05-05T20:42:17.185Z,93.70
2019-05-05T20:44:57.493Z,94.30
2019-05-05T20:47:40.043Z,93.80
2019-05-05T20:50:19.691Z,94.40
2019-05-05T20:52:59.725Z,93.80
2019-05-05T20:55:40.817Z,93.50
2019-05-05T20:58:21.076Z,93.70
2019-05-05T21:01:01.108Z,93.60
2019-05-05T21:03:41.164Z,93.70
2019-05-05T21:06:21.423Z,93.90
2019-05-05T21:09:01.816Z,94.10
2019-05-05T21:11:43.660Z,94.20
2019-05-05T21:14:33.679Z,94.40
2019-05-05T21:17:06.162Z,94.40
2019-05-05T21:19:46.375Z,94.40
2019-05-05T21:22:33.726Z,94.60
2019-05-05T21:28:26.599Z,94.30
2019-05-05T21:31:06.597Z,94.30
2019-05-05T21:33:46.926Z,94.40
2019-05-05T21:36:26.854Z,94.70
2019-05-05T21:38:54.940Z,94.60
2019-05-05T21:44:26.108Z,94.40
2019-05-05T21:47:06.054Z,94.30
2019-05-05T21:49:46.344Z,94.30
2019-05-05T21:55:26.047Z,94.40
2019-05-05T21:58:13.565Z,94.30
2019-05-05T22:01:00.565Z,94.60
2019-05-05T22:03:40.245Z,94.60
2019-05-05T22:06:20.478Z,94.60
2019-05-05T22:08:48.175Z,94.70
2019-05-05T22:11:28.804Z,94.60
2019-05-05T22:14:08.708Z,94.40
2019-05-05T22:16:48.944Z,94.30
2019-05-05T22:19:31.564Z,94.30
2019-05-05T22:22:14.543Z,94.40
2019-05-05T22:24:54.367Z,94.30
2019-05-05T22:27:34.601Z,94.40
2019-05-05T22:30:14.773Z,94.30
2019-05-05T22:32:55.293Z,94.30
2019-05-05T22:35:35.494Z,94.30
2019-05-05T22:38:15.621Z,94.40
2019-05-05T22:40:55.770Z,94.50
2019-05-05T22:43:35.741Z,94.30
2019-05-05T22:46:16.000Z,94.30
2019-05-05T22:48:56.339Z,94.30
2019-05-05T22:51:36.329Z,94.30
2019-05-05T22:54:16.521Z,94.40
2019-05-05T22:59:55.677Z,94.40
2019-05-05T23:05:43.929Z,93.90
2019-05-05T23:08:25.276Z,94.10
2019-05-05T23:11:05.407Z,94.30
2019-05-05T23:13:45.608Z,94.00
2019-05-05T23:16:34.004Z,94.10
2019-05-05T23:19:13.915Z,94.30
2019-05-05T23:27:54.576Z,94.50
2019-05-05T23:30:41.407Z,94.60
2019-05-05T23:33:17.091Z,94.10
2019-05-05T23:35:57.146Z,94.20
2019-05-05T23:38:38.445Z,94.30
2019-05-05T23:41:18.525Z,94.30
2019-05-05T23:43:59.196Z,94.20
2019-05-05T23:46:38.851Z,94.00
2019-05-05T23:49:19.103Z,94.00
2019-05-05T23:51:59.265Z,94.00
2019-05-05T23:54:39.455Z,94.10
2019-05-05T23:57:19.644Z,94.20
